^^
Station Historical Data
Daily Summary for July 15, 2017 Units:  Both    English   Metric
« Previous Day
Next Day »
Daily Weekly Monthly Yearly Custom
  High: Low: Average:
Temperature: 74.7 °F /  23.7 °C 42.4 °F /  5.8 °C 57.3 °F /  14.1 °C
Dew Point: 38.8 °F /  3.8 °C 24.1 °F /  -4.4 °C 30.6 °F /  -0.8 °C
Humidity: 71% 17% 41%
Wind Speed: 12.1mph /  19.5km/h - 1.1mph /  1.8km/h
Wind Gust: 16.0mph /  25.7km/h - -
Wind- - West
Pressure: 30.29 in /  1025.6 hPa 30.16 in /  1021.2 hPa -
Precipitation: 0.00 in /  0 mm    
Historical Graphs
 
 
Tabular Data for July 15, 2017
Time Temperature Dew Point Pressure Wind Wind Speed Wind Gust Humidity Rainfall Rate (Hourly) solar Conditions
00:00 49.8 °F /  9.9 °C 32.4 °F /  0.2 °C 30.19in /  1022.2hPa Calm     51% 0.00in /  0mm 0.0 W/m2
00:06 49.6 °F /  9.8 °C 32.2 °F /  0.1 °C 30.19in /  1022.2hPa Calm     51% 0.00in /  0mm 0.0 W/m2
00:12 49.5 °F /  9.7 °C 32.5 °F /  0.3 °C 30.19in /  1022.2hPa Calm     52% 0.00in /  0mm 0.0 W/m2
00:18 49.3 °F /  9.6 °C 32.4 °F /  0.2 °C 30.20in /  1022.6hPa Calm     52% 0.00in /  0mm 0.0 W/m2
00:24 48.9 °F /  9.4 °C 32.5 °F /  0.3 °C 30.20in /  1022.6hPa Calm     53% 0.00in /  0mm 0.0 W/m2
00:31 48.6 °F /  9.2 °C 32.2 °F /  0.1 °C 30.20in /  1022.6hPa Calm     53% 0.00in /  0mm 0.0 W/m2
00:37 48.4 °F /  9.1 °C 32.5 °F /  0.3 °C 30.20in /  1022.6hPa Calm     54% 0.00in /  0mm 0.0 W/m2
00:43 48.2 °F /  9 °C 32.4 °F /  0.2 °C 30.21in /  1022.9hPa Calm     54% 0.00in /  0mm 0.0 W/m2
00:49 48.0 °F /  8.9 °C 32.5 °F /  0.3 °C 30.21in /  1022.9hPa Calm     55% 0.00in /  0mm 0.0 W/m2
00:55 47.8 °F /  8.8 °C 32.5 °F /  0.3 °C 30.21in /  1022.9hPa Calm     55% 0.00in /  0mm 0.0 W/m2
01:01 47.7 °F /  8.7 °C 32.7 °F /  0.4 °C 30.21in /  1022.9hPa Calm     56% 0.00in /  0mm 0.0 W/m2
01:07 47.5 °F /  8.6 °C 32.5 °F /  0.3 °C 30.20in /  1022.6hPa Calm     56% 0.00in /  0mm 0.0 W/m2
01:16 47.1 °F /  8.4 °C 32.7 °F /  0.4 °C 30.20in /  1022.6hPa Calm     57% 0.00in /  0mm 0.0 W/m2
01:22 46.9 °F /  8.3 °C 32.5 °F /  0.3 °C 30.20in /  1022.6hPa Calm     57% 0.00in /  0mm 0.0 W/m2
01:28 46.8 °F /  8.2 °C 32.7 °F /  0.4 °C 30.20in /  1022.6hPa Calm     58% 0.00in /  0mm 0.0 W/m2
01:34 46.4 °F /  8 °C 32.4 °F /  0.2 °C 30.20in /  1022.6hPa Calm     58% 0.00in /  0mm 0.0 W/m2
01:40 46.2 °F /  7.9 °C 32.2 °F /  0.1 °C 30.19in /  1022.2hPa Calm     58% 0.00in /  0mm 0.0 W/m2
01:46 46.0 °F /  7.8 °C 32.5 °F /  0.3 °C 30.20in /  1022.6hPa Calm     59% 0.00in /  0mm 0.0 W/m2
01:53 45.9 °F /  7.7 °C 32.4 °F /  0.2 °C 30.20in /  1022.6hPa Calm     59% 0.00in /  0mm 0.0 W/m2
01:59 45.7 °F /  7.6 °C 32.5 °F /  0.3 °C 30.20in /  1022.6hPa Calm     60% 0.00in /  0mm 0.0 W/m2
02:05 45.7 °F /  7.6 °C 32.2 °F /  0.1 °C 30.20in /  1022.6hPa Calm     59% 0.00in /  0mm 0.0 W/m2
02:11 45.5 °F /  7.5 °C 32.4 °F /  0.2 °C 30.20in /  1022.6hPa Calm     60% 0.00in /  0mm 0.0 W/m2
02:17 45.3 °F /  7.4 °C 32.7 °F /  0.4 °C 30.19in /  1022.2hPa Calm     61% 0.00in /  0mm 0.0 W/m2
02:23 45.3 °F /  7.4 °C 32.7 °F /  0.4 °C 30.20in /  1022.6hPa Calm     61% 0.00in /  0mm 0.0 W/m2
02:29 45.3 °F /  7.4 °C 32.7 °F /  0.4 °C 30.19in /  1022.2hPa Calm     61% 0.00in /  0mm 0.0 W/m2
02:35 45.3 °F /  7.4 °C 33.1 °F /  0.6 °C 30.19in /  1022.2hPa Calm     62% 0.00in /  0mm 0.0 W/m2
02:42 45.3 °F /  7.4 °C 32.7 °F /  0.4 °C 30.19in /  1022.2hPa Calm     61% 0.00in /  0mm 0.0 W/m2
02:48 45.3 °F /  7.4 °C 32.7 °F /  0.4 °C 30.19in /  1022.2hPa Calm     61% 0.00in /  0mm 0.0 W/m2
02:52 45.1 °F /  7.3 °C 32.9 °F /  0.5 °C 30.19in /  1022.2hPa Calm     62% 0.00in /  0mm 0.0 W/m2
02:58 45.1 °F /  7.3 °C 32.9 °F /  0.5 °C 30.19in /  1022.2hPa Calm     62% 0.00in /  0mm 0.0 W/m2
03:04 45.0 °F /  7.2 °C 32.7 °F /  0.4 °C 30.19in /  1022.2hPa Calm     62% 0.00in /  0mm 0.0 W/m2
03:10 45.0 °F /  7.2 °C 32.7 °F /  0.4 °C 30.19in /  1022.2hPa Calm     62% 0.00in /  0mm 0.0 W/m2
03:16 44.8 °F /  7.1 °C 32.9 °F /  0.5 °C 30.19in /  1022.2hPa Calm     63% 0.00in /  0mm 0.0 W/m2
03:23 44.6 °F /  7 °C 32.7 °F /  0.4 °C 30.19in /  1022.2hPa Calm     63% 0.00in /  0mm 0.0 W/m2
03:29 44.4 °F /  6.9 °C 32.5 °F /  0.3 °C 30.19in /  1022.2hPa Calm     63% 0.00in /  0mm 0.0 W/m2
03:35 44.4 °F /  6.9 °C 32.5 °F /  0.3 °C 30.19in /  1022.2hPa Calm     63% 0.00in /  0mm 0.0 W/m2
03:41 44.2 °F /  6.8 °C 32.9 °F /  0.5 °C 30.19in /  1022.2hPa Calm     64% 0.00in /  0mm 0.0 W/m2
03:47 44.1 °F /  6.7 °C 33.1 °F /  0.6 °C 30.19in /  1022.2hPa Calm     65% 0.00in /  0mm 0.0 W/m2
03:53 44.1 °F /  6.7 °C 33.1 °F /  0.6 °C 30.19in /  1022.2hPa Calm     65% 0.00in /  0mm 0.0 W/m2
04:00 43.9 °F /  6.6 °C 32.9 °F /  0.5 °C 30.19in /  1022.2hPa Calm     65% 0.00in /  0mm 0.0 W/m2
04:06 43.7 °F /  6.5 °C 33.1 °F /  0.6 °C 30.19in /  1022.2hPa Calm     66% 0.00in /  0mm 0.0 W/m2
04:12 43.5 °F /  6.4 °C 32.9 °F /  0.5 °C 30.19in /  1022.2hPa Calm     66% 0.00in /  0mm 0.0 W/m2
04:18 43.5 °F /  6.4 °C 33.3 °F /  0.7 °C 30.20in /  1022.6hPa Calm     67% 0.00in /  0mm 0.0 W/m2
04:24 43.3 °F /  6.3 °C 32.7 °F /  0.4 °C 30.20in /  1022.6hPa Calm     66% 0.00in /  0mm 0.0 W/m2
04:30 43.3 °F /  6.3 °C 33.1 °F /  0.6 °C 30.20in /  1022.6hPa Calm     67% 0.00in /  0mm 0.0 W/m2
04:36 43.3 °F /  6.3 °C 33.1 °F /  0.6 °C 30.20in /  1022.6hPa Calm     67% 0.00in /  0mm 0.0 W/m2
04:43 43.3 °F /  6.3 °C 33.1 °F /  0.6 °C 30.20in /  1022.6hPa Calm     67% 0.00in /  0mm 0.0 W/m2
04:49 43.3 °F /  6.3 °C 33.4 °F /  0.8 °C 30.20in /  1022.6hPa Calm     68% 0.00in /  0mm 0.0 W/m2
04:55 43.2 °F /  6.2 °C 33.3 °F /  0.7 °C 30.20in /  1022.6hPa Calm     68% 0.00in /  0mm 0.0 W/m2
05:01 43.2 °F /  6.2 °C 33.3 °F /  0.7 °C 30.20in /  1022.6hPa Calm     68% 0.00in /  0mm 0.0 W/m2
05:07 43.2 °F /  6.2 °C 33.3 °F /  0.7 °C 30.20in /  1022.6hPa Calm     68% 0.00in /  0mm 0.0 W/m2
05:13 43.2 °F /  6.2 °C 33.3 °F /  0.7 °C 30.21in /  1022.9hPa Calm     68% 0.00in /  0mm 0.0 W/m2
05:19 43.0 °F /  6.1 °C 33.1 °F /  0.6 °C 30.21in /  1022.9hPa Calm     68% 0.00in /  0mm 0.0 W/m2
05:26 43.0 °F /  6.1 °C 33.1 °F /  0.6 °C 30.21in /  1022.9hPa Calm     68% 0.00in /  0mm 0.0 W/m2
05:32 42.8 °F /  6 °C 32.9 °F /  0.5 °C 30.21in /  1022.9hPa Calm     68% 0.00in /  0mm 0.0 W/m2
05:38 42.6 °F /  5.9 °C 32.7 °F /  0.4 °C 30.22in /  1023.2hPa Calm     68% 0.00in /  0mm 0.0 W/m2
05:44 42.6 °F /  5.9 °C 33.1 °F /  0.6 °C 30.22in /  1023.2hPa Calm     69% 0.00in /  0mm 0.0 W/m2
05:50 42.6 °F /  5.9 °C 33.1 °F /  0.6 °C 30.22in /  1023.2hPa Calm     69% 0.00in /  0mm 0.0 W/m2
05:56 42.6 °F /  5.9 °C 33.1 °F /  0.6 °C 30.22in /  1023.2hPa Calm     69% 0.00in /  0mm 0.0 W/m2
06:03 42.6 °F /  5.9 °C 33.1 °F /  0.6 °C 30.22in /  1023.2hPa Calm     69% 0.00in /  0mm 0.0 W/m2
06:09 42.6 °F /  5.9 °C 33.1 °F /  0.6 °C 30.22in /  1023.2hPa Calm     69% 0.00in /  0mm 0.0 W/m2
06:15 42.6 °F /  5.9 °C 33.4 °F /  0.8 °C 30.22in /  1023.2hPa Calm     70% 0.00in /  0mm 0.0 W/m2
06:21 42.6 °F /  5.9 °C 33.4 °F /  0.8 °C 30.22in /  1023.2hPa Calm     70% 0.00in /  0mm 0.0 W/m2
06:27 42.6 °F /  5.9 °C 33.1 °F /  0.6 °C 30.22in /  1023.2hPa Calm     69% 0.00in /  0mm 0.0 W/m2
06:33 42.6 °F /  5.9 °C 33.1 °F /  0.6 °C 30.22in /  1023.2hPa Calm     69% 0.00in /  0mm 0.0 W/m2
06:39 42.4 °F /  5.8 °C 33.1 °F /  0.6 °C 30.22in /  1023.2hPa Calm     69% 0.00in /  0mm 7.0 W/m2
06:46 42.4 °F /  5.8 °C 33.1 °F /  0.6 °C 30.23in /  1023.6hPa Calm     69% 0.00in /  0mm 9.0 W/m2
06:52 42.4 °F /  5.8 °C 33.4 °F /  0.8 °C 30.23in /  1023.6hPa Calm     70% 0.00in /  0mm 12.0 W/m2
06:58 42.6 °F /  5.9 °C 33.4 °F /  0.8 °C 30.23in /  1023.6hPa Calm     70% 0.00in /  0mm 14.0 W/m2
07:04 42.6 °F /  5.9 °C 33.4 °F /  0.8 °C 30.23in /  1023.6hPa Calm     70% 0.00in /  0mm 18.0 W/m2
07:10 43.0 °F /  6.1 °C 33.8 °F /  1 °C 30.24in /  1023.9hPa Calm     70% 0.00in /  0mm 19.0 W/m2
07:16 43.2 °F /  6.2 °C 34.0 °F /  1.1 °C 30.24in /  1023.9hPa Calm   1.0mph /  1.6km/h 70% 0.00in /  0mm 21.0 W/m2
07:22 43.7 °F /  6.5 °C 34.5 °F /  1.4 °C 30.24in /  1023.9hPa Calm     70% 0.00in /  0mm 23.0 W/m2
07:29 44.1 °F /  6.7 °C 34.9 °F /  1.6 °C 30.24in /  1023.9hPa Calm     70% 0.00in /  0mm 25.0 W/m2
07:35 44.2 °F /  6.8 °C 35.4 °F /  1.9 °C 30.24in /  1023.9hPa Calm     71% 0.00in /  0mm 26.0 W/m2
07:41 45.0 °F /  7.2 °C 36.1 °F /  2.3 °C 30.24in /  1023.9hPa Calm     71% 0.00in /  0mm 28.0 W/m2
07:47 45.7 °F /  7.6 °C 36.9 °F /  2.7 °C 30.24in /  1023.9hPa Calm   1.0mph /  1.6km/h 71% 0.00in /  0mm 30.0 W/m2
07:53 46.9 °F /  8.3 °C 36.9 °F /  2.7 °C 30.24in /  1023.9hPa Calm   1.0mph /  1.6km/h 68% 0.00in /  0mm 30.0 W/m2
07:59 49.5 °F /  9.7 °C 37.8 °F /  3.2 °C 30.24in /  1023.9hPa Calm     64% 0.00in /  0mm 32.0 W/m2
08:06 51.3 °F /  10.7 °C 38.7 °F /  3.7 °C 30.24in /  1023.9hPa Calm   1.0mph /  1.6km/h 62% 0.00in /  0mm 33.0 W/m2
08:12 53.1 °F /  11.7 °C 38.3 °F /  3.5 °C 30.24in /  1023.9hPa Calm   1.0mph /  1.6km/h 57% 0.00in /  0mm 253.0 W/m2
08:18 55.6 °F /  13.1 °C 38.3 °F /  3.5 °C 30.25in /  1024.3hPa Calm   1.0mph /  1.6km/h 52% 0.00in /  0mm 309.0 W/m2
08:24 57.7 °F /  14.3 °C 38.1 °F /  3.4 °C 30.25in /  1024.3hPa Calm   4.0mph /  6.4km/h 48% 0.00in /  0mm 330.0 W/m2
08:30 59.7 °F /  15.4 °C 37.8 °F /  3.2 °C 30.25in /  1024.3hPa Calm   3.0mph /  4.8km/h 44% 0.00in /  0mm 352.0 W/m2
08:36 61.2 °F /  16.2 °C 38.5 °F /  3.6 °C 30.25in /  1024.3hPa Calm   3.0mph /  4.8km/h 43% 0.00in /  0mm 371.0 W/m2
08:42 62.2 °F /  16.8 °C 38.8 °F /  3.8 °C 30.25in /  1024.3hPa Calm   6.0mph /  9.7km/h 42% 0.00in /  0mm 388.0 W/m2
08:49 63.0 °F /  17.2 °C 38.3 °F /  3.5 °C 30.25in /  1024.3hPa Calm   3.0mph /  4.8km/h 40% 0.00in /  0mm 406.0 W/m2
08:55 63.7 °F /  17.6 °C 38.3 °F /  3.5 °C 30.25in /  1024.3hPa Calm   2.0mph /  3.2km/h 39% 0.00in /  0mm 424.0 W/m2
09:01 64.2 °F /  17.9 °C 38.1 °F /  3.4 °C 30.25in /  1024.3hPa Calm   4.0mph /  6.4km/h 38% 0.00in /  0mm 439.0 W/m2
09:07 64.8 °F /  18.2 °C 38.5 °F /  3.6 °C 30.25in /  1024.3hPa NNE 2.9mph /  4.7km/h 3.0mph /  4.8km/h 38% 0.00in /  0mm 459.0 W/m2
09:13 65.7 °F /  18.7 °C 38.7 °F /  3.7 °C 30.25in /  1024.3hPa Calm   3.0mph /  4.8km/h 37% 0.00in /  0mm 473.0 W/m2
09:19 66.4 °F /  19.1 °C 38.7 °F /  3.7 °C 30.25in /  1024.3hPa Calm   7.0mph /  11.3km/h 36% 0.00in /  0mm 490.0 W/m2
09:25 66.7 °F /  19.3 °C 38.3 °F /  3.5 °C 30.25in /  1024.3hPa NNW 2.0mph /  3.2km/h 5.0mph /  8km/h 35% 0.00in /  0mm 503.0 W/m2
09:31 67.5 °F /  19.7 °C 38.8 °F /  3.8 °C 30.25in /  1024.3hPa Calm   3.0mph /  4.8km/h 35% 0.00in /  0mm 515.0 W/m2
09:38 67.8 °F /  19.9 °C 38.5 °F /  3.6 °C 30.24in /  1023.9hPa NNW 0.9mph /  1.4km/h 3.0mph /  4.8km/h 34% 0.00in /  0mm 536.0 W/m2
09:44 68.4 °F /  20.2 °C 37.4 °F /  3 °C 30.25in /  1024.3hPa WSW 4.9mph /  7.9km/h 7.0mph /  11.3km/h 32% 0.00in /  0mm 548.0 W/m2
09:50 68.7 °F /  20.4 °C 36.9 °F /  2.7 °C 30.24in /  1023.9hPa WSW 0.9mph /  1.4km/h 6.0mph /  9.7km/h 31% 0.00in /  0mm 564.0 W/m2
09:56 69.1 °F /  20.6 °C 37.2 °F /  2.9 °C 30.24in /  1023.9hPa WNW 0.9mph /  1.4km/h 4.0mph /  6.4km/h 31% 0.00in /  0mm 578.0 W/m2
10:02 69.3 °F /  20.7 °C 36.5 °F /  2.5 °C 30.24in /  1023.9hPa West 4.9mph /  7.9km/h 9.0mph /  14.5km/h 30% 0.00in /  0mm 589.0 W/m2
10:08 69.4 °F /  20.8 °C 35.8 °F /  2.1 °C 30.24in /  1023.9hPa WNW 2.9mph /  4.7km/h 6.0mph /  9.7km/h 29% 0.00in /  0mm 598.0 W/m2
10:14 69.8 °F /  21 °C 36.1 °F /  2.3 °C 30.24in /  1023.9hPa NW 0.9mph /  1.4km/h 3.0mph /  4.8km/h 29% 0.00in /  0mm 606.0 W/m2
10:20 70.3 °F /  21.3 °C 36.5 °F /  2.5 °C 30.24in /  1023.9hPa West 6.0mph /  9.7km/h 11.0mph /  17.7km/h 29% 0.00in /  0mm 621.0 W/m2
10:26 70.5 °F /  21.4 °C 35.8 °F /  2.1 °C 30.24in /  1023.9hPa NNW 12.1mph /  19.5km/h 12.1mph /  19.5km/h 28% 0.00in /  0mm 633.0 W/m2
10:33 70.9 °F /  21.6 °C 35.2 °F /  1.8 °C 30.23in /  1023.6hPa West 2.9mph /  4.7km/h 9.0mph /  14.5km/h 27% 0.00in /  0mm 638.0 W/m2
10:39 71.1 °F /  21.7 °C 35.4 °F /  1.9 °C 30.23in /  1023.6hPa NNW 2.9mph /  4.7km/h 10.0mph /  16.1km/h 27% 0.00in /  0mm 642.0 W/m2
10:45 71.2 °F /  21.8 °C 35.6 °F /  2 °C 30.23in /  1023.6hPa WSW 0.9mph /  1.4km/h 4.0mph /  6.4km/h 27% 0.00in /  0mm 640.0 W/m2
10:51 71.2 °F /  21.8 °C 34.5 °F /  1.4 °C 30.23in /  1023.6hPa WSW 2.9mph /  4.7km/h 10.0mph /  16.1km/h 26% 0.00in /  0mm 652.0 W/m2
10:57 71.8 °F /  22.1 °C 34.0 °F /  1.1 °C 30.22in /  1023.2hPa NW 0.9mph /  1.4km/h 3.0mph /  4.8km/h 25% 0.00in /  0mm 663.0 W/m2
11:03 72.1 °F /  22.3 °C 34.3 °F /  1.3 °C 30.22in /  1023.2hPa West 0.9mph /  1.4km/h 12.0mph /  19.3km/h 25% 0.00in /  0mm 671.0 W/m2
11:09 72.3 °F /  22.4 °C 34.5 °F /  1.4 °C 30.22in /  1023.2hPa WNW 0.9mph /  1.4km/h 10.0mph /  16.1km/h 25% 0.00in /  0mm 675.0 W/m2
11:15 72.3 °F /  22.4 °C 34.5 °F /  1.4 °C 30.22in /  1023.2hPa WSW 2.0mph /  3.2km/h 5.0mph /  8km/h 25% 0.00in /  0mm 680.0 W/m2
11:22 72.7 °F /  22.6 °C 33.8 °F /  1 °C 30.22in /  1023.2hPa NW 4.0mph /  6.4km/h 9.0mph /  14.5km/h 24% 0.00in /  0mm 687.0 W/m2
11:28 73.0 °F /  22.8 °C 34.2 °F /  1.2 °C 30.22in /  1023.2hPa NW 6.0mph /  9.7km/h 12.0mph /  19.3km/h 24% 0.00in /  0mm 680.0 W/m2
11:34 73.2 °F /  22.9 °C 34.3 °F /  1.3 °C 30.22in /  1023.2hPa Calm   9.0mph /  14.5km/h 24% 0.00in /  0mm 689.0 W/m2
11:40 73.2 °F /  22.9 °C 32.2 °F /  0.1 °C 30.22in /  1023.2hPa West 4.9mph /  7.9km/h 8.0mph /  12.9km/h 22% 0.00in /  0mm 687.0 W/m2
11:48 73.4 °F /  23 °C 31.1 °F /  -0.5 °C 30.21in /  1022.9hPa NNW 2.9mph /  4.7km/h 16.0mph /  25.7km/h 21% 0.00in /  0mm 694.0 W/m2
11:57 73.2 °F /  22.9 °C 30.9 °F /  -0.6 °C 30.21in /  1022.9hPa SSW 0.9mph /  1.4km/h 8.0mph /  12.9km/h 21% 0.00in /  0mm 693.0 W/m2
12:03 73.0 °F /  22.8 °C 29.7 °F /  -1.3 °C 30.21in /  1022.9hPa West 2.9mph /  4.7km/h 8.0mph /  12.9km/h 20% 0.00in /  0mm 698.0 W/m2
12:08 72.9 °F /  22.7 °C 29.5 °F /  -1.4 °C 30.21in /  1022.9hPa WNW 2.9mph /  4.7km/h 10.0mph /  16.1km/h 20% 0.00in /  0mm 694.0 W/m2
12:15 73.0 °F /  22.8 °C 30.7 °F /  -0.7 °C 30.20in /  1022.6hPa WNW 2.0mph /  3.2km/h 4.0mph /  6.4km/h 21% 0.00in /  0mm 689.0 W/m2
12:21 73.6 °F /  23.1 °C 30.0 °F /  -1.1 °C 30.20in /  1022.6hPa WSW 0.9mph /  1.4km/h 9.0mph /  14.5km/h 20% 0.00in /  0mm 691.0 W/m2
12:27 73.9 °F /  23.3 °C 30.4 °F /  -0.9 °C 30.19in /  1022.2hPa NW 6.9mph /  11.1km/h 8.0mph /  12.9km/h 20% 0.00in /  0mm 687.0 W/m2
12:33 73.9 °F /  23.3 °C 30.4 °F /  -0.9 °C 30.19in /  1022.2hPa Calm   11.0mph /  17.7km/h 20% 0.00in /  0mm 686.0 W/m2
12:39 74.1 °F /  23.4 °C 30.6 °F /  -0.8 °C 30.19in /  1022.2hPa NNW 6.9mph /  11.1km/h 9.0mph /  14.5km/h 20% 0.00in /  0mm 680.0 W/m2
12:45 74.1 °F /  23.4 °C 29.3 °F /  -1.5 °C 30.19in /  1022.2hPa NW 2.9mph /  4.7km/h 9.0mph /  14.5km/h 19% 0.00in /  0mm 675.0 W/m2
12:51 74.1 °F /  23.4 °C 30.6 °F /  -0.8 °C 30.19in /  1022.2hPa Calm   7.0mph /  11.3km/h 20% 0.00in /  0mm 664.0 W/m2
12:58 74.5 °F /  23.6 °C 30.7 °F /  -0.7 °C 30.18in /  1021.9hPa Calm   5.0mph /  8km/h 20% 0.00in /  0mm 663.0 W/m2
13:04 74.7 °F /  23.7 °C 29.7 °F /  -1.3 °C 30.18in /  1021.9hPa North 4.9mph /  7.9km/h 13.0mph /  20.9km/h 19% 0.00in /  0mm 652.0 W/m2
13:10 74.7 °F /  23.7 °C 28.4 °F /  -2 °C 30.18in /  1021.9hPa West 2.0mph /  3.2km/h 8.0mph /  12.9km/h 18% 0.00in /  0mm 649.0 W/m2
13:16 73.9 °F /  23.3 °C 29.1 °F /  -1.6 °C 30.18in /  1021.9hPa North 2.0mph /  3.2km/h 9.0mph /  14.5km/h 19% 0.00in /  0mm 636.0 W/m2
13:22 73.9 °F /  23.3 °C 27.7 °F /  -2.4 °C 30.18in /  1021.9hPa West 6.9mph /  11.1km/h 11.0mph /  17.7km/h 18% 0.00in /  0mm 628.0 W/m2
13:28 73.8 °F /  23.2 °C 27.7 °F /  -2.4 °C 30.17in /  1021.6hPa West 8.9mph /  14.3km/h 10.0mph /  16.1km/h 18% 0.00in /  0mm 619.0 W/m2
13:34 73.9 °F /  23.3 °C 27.7 °F /  -2.4 °C 30.17in /  1021.6hPa NW 6.9mph /  11.1km/h 7.0mph /  11.3km/h 18% 0.00in /  0mm 608.0 W/m2
13:40 74.1 °F /  23.4 °C 27.9 °F /  -2.3 °C 30.17in /  1021.6hPa North 6.0mph /  9.7km/h 11.0mph /  17.7km/h 18% 0.00in /  0mm 594.0 W/m2
13:46 73.8 °F /  23.2 °C 27.7 °F /  -2.4 °C 30.17in /  1021.6hPa WSW 0.9mph /  1.4km/h 7.0mph /  11.3km/h 18% 0.00in /  0mm 584.0 W/m2
13:53 74.1 °F /  23.4 °C 26.6 °F /  -3 °C 30.17in /  1021.6hPa NE 0.9mph /  1.4km/h 7.0mph /  11.3km/h 17% 0.00in /  0mm 577.0 W/m2
13:59 74.1 °F /  23.4 °C 26.6 °F /  -3 °C 30.17in /  1021.6hPa West 2.0mph /  3.2km/h 6.0mph /  9.7km/h 17% 0.00in /  0mm 566.0 W/m2
14:05 74.1 °F /  23.4 °C 26.6 °F /  -3 °C 30.17in /  1021.6hPa Calm   5.0mph /  8km/h 17% 0.00in /  0mm 550.0 W/m2
14:11 74.3 °F /  23.5 °C 26.6 °F /  -3 °C 30.17in /  1021.6hPa NW 4.9mph /  7.9km/h 7.0mph /  11.3km/h 17% 0.00in /  0mm 533.0 W/m2
14:17 74.1 °F /  23.4 °C 26.6 °F /  -3 °C 30.17in /  1021.6hPa WNW 2.9mph /  4.7km/h 11.0mph /  17.7km/h 17% 0.00in /  0mm 520.0 W/m2
14:23 74.1 °F /  23.4 °C 26.6 °F /  -3 °C 30.17in /  1021.6hPa NW 2.9mph /  4.7km/h 7.0mph /  11.3km/h 17% 0.00in /  0mm 506.0 W/m2
14:29 74.1 °F /  23.4 °C 26.6 °F /  -3 °C 30.17in /  1021.6hPa WSW 8.1mph /  13km/h 14.0mph /  22.5km/h 17% 0.00in /  0mm 496.0 W/m2
14:35 73.9 °F /  23.3 °C 26.4 °F /  -3.1 °C 30.16in /  1021.2hPa West 4.9mph /  7.9km/h 10.0mph /  16.1km/h 17% 0.00in /  0mm 475.0 W/m2
14:42 73.8 °F /  23.2 °C 26.2 °F /  -3.2 °C 30.16in /  1021.2hPa North 2.0mph /  3.2km/h 10.0mph /  16.1km/h 17% 0.00in /  0mm 462.0 W/m2
14:48 73.8 °F /  23.2 °C 26.2 °F /  -3.2 °C 30.16in /  1021.2hPa NNW 6.0mph /  9.7km/h 10.0mph /  16.1km/h 17% 0.00in /  0mm 439.0 W/m2
14:54 73.6 °F /  23.1 °C 27.5 °F /  -2.5 °C 30.16in /  1021.2hPa West 2.9mph /  4.7km/h 8.0mph /  12.9km/h 18% 0.00in /  0mm 424.0 W/m2
15:00 73.6 °F /  23.1 °C 27.5 °F /  -2.5 °C 30.16in /  1021.2hPa SW 10.1mph /  16.3km/h 10.1mph /  16.3km/h 18% 0.00in /  0mm 408.0 W/m2
15:06 73.8 °F /  23.2 °C 26.2 °F /  -3.2 °C 30.16in /  1021.2hPa West 4.9mph /  7.9km/h 11.0mph /  17.7km/h 17% 0.00in /  0mm 390.0 W/m2
15:12 73.4 °F /  23 °C 25.9 °F /  -3.4 °C 30.16in /  1021.2hPa WSW 4.0mph /  6.4km/h 7.0mph /  11.3km/h 17% 0.00in /  0mm 374.0 W/m2
15:18 72.7 °F /  22.6 °C 26.8 °F /  -2.9 °C 30.16in /  1021.2hPa West 2.9mph /  4.7km/h 11.0mph /  17.7km/h 18% 0.00in /  0mm 350.0 W/m2
15:25 72.3 °F /  22.4 °C 26.4 °F /  -3.1 °C 30.16in /  1021.2hPa WSW 4.0mph /  6.4km/h 6.0mph /  9.7km/h 18% 0.00in /  0mm 334.0 W/m2
15:31 72.1 °F /  22.3 °C 25.0 °F /  -3.9 °C 30.16in /  1021.2hPa NNW 4.0mph /  6.4km/h 6.0mph /  9.7km/h 17% 0.00in /  0mm 316.0 W/m2
15:37 71.8 °F /  22.1 °C 24.6 °F /  -4.1 °C 30.16in /  1021.2hPa West 12.1mph /  19.5km/h 12.1mph /  19.5km/h 17% 0.00in /  0mm 46.0 W/m2
15:43 71.2 °F /  21.8 °C 24.3 °F /  -4.3 °C 30.16in /  1021.2hPa WSW 11.0mph /  17.7km/h 11.0mph /  17.7km/h 17% 0.00in /  0mm 42.0 W/m2
15:49 71.1 °F /  21.7 °C 25.3 °F /  -3.7 °C 30.17in /  1021.6hPa West 4.9mph /  7.9km/h 11.0mph /  17.7km/h 18% 0.00in /  0mm 40.0 W/m2
15:55 70.9 °F /  21.6 °C 25.3 °F /  -3.7 °C 30.17in /  1021.6hPa West 0.9mph /  1.4km/h 9.0mph /  14.5km/h 18% 0.00in /  0mm 39.0 W/m2
16:01 70.5 °F /  21.4 °C 25.0 °F /  -3.9 °C 30.17in /  1021.6hPa WNW 2.0mph /  3.2km/h 7.0mph /  11.3km/h 18% 0.00in /  0mm 37.0 W/m2
16:07 70.3 °F /  21.3 °C 24.8 °F /  -4 °C 30.17in /  1021.6hPa WNW 0.9mph /  1.4km/h 6.0mph /  9.7km/h 18% 0.00in /  0mm 33.0 W/m2
16:14 70.2 °F /  21.2 °C 24.6 °F /  -4.1 °C 30.18in /  1021.9hPa WNW 4.9mph /  7.9km/h 11.0mph /  17.7km/h 18% 0.00in /  0mm 30.0 W/m2
16:20 70.0 °F /  21.1 °C 25.9 °F /  -3.4 °C 30.18in /  1021.9hPa West 2.9mph /  4.7km/h 5.0mph /  8km/h 19% 0.00in /  0mm 26.0 W/m2
16:26 69.6 °F /  20.9 °C 24.3 °F /  -4.3 °C 30.18in /  1021.9hPa West 6.0mph /  9.7km/h 8.0mph /  12.9km/h 18% 0.00in /  0mm 23.0 W/m2
16:32 69.4 °F /  20.8 °C 24.1 °F /  -4.4 °C 30.19in /  1022.2hPa WSW 2.0mph /  3.2km/h 7.0mph /  11.3km/h 18% 0.00in /  0mm 21.0 W/m2
16:38 69.3 °F /  20.7 °C 25.2 °F /  -3.8 °C 30.18in /  1021.9hPa West 0.9mph /  1.4km/h 5.0mph /  8km/h 19% 0.00in /  0mm 19.0 W/m2
16:44 69.1 °F /  20.6 °C 25.2 °F /  -3.8 °C 30.19in /  1022.2hPa Calm   9.0mph /  14.5km/h 19% 0.00in /  0mm 19.0 W/m2
16:50 68.5 °F /  20.3 °C 24.6 °F /  -4.1 °C 30.19in /  1022.2hPa Calm   5.0mph /  8km/h 19% 0.00in /  0mm 18.0 W/m2
16:57 68.2 °F /  20.1 °C 24.3 °F /  -4.3 °C 30.19in /  1022.2hPa Calm   6.0mph /  9.7km/h 19% 0.00in /  0mm 14.0 W/m2
17:03 67.8 °F /  19.9 °C 24.1 °F /  -4.4 °C 30.19in /  1022.2hPa West 2.0mph /  3.2km/h 8.0mph /  12.9km/h 19% 0.00in /  0mm 12.0 W/m2
17:09 67.5 °F /  19.7 °C 25.0 °F /  -3.9 °C 30.19in /  1022.2hPa Calm   5.0mph /  8km/h 20% 0.00in /  0mm 11.0 W/m2
17:15 67.3 °F /  19.6 °C 24.8 °F /  -4 °C 30.19in /  1022.2hPa NW 0.9mph /  1.4km/h 5.0mph /  8km/h 20% 0.00in /  0mm 7.0 W/m2
17:21 66.7 °F /  19.3 °C 25.5 °F /  -3.6 °C 30.20in /  1022.6hPa Calm   1.0mph /  1.6km/h 21% 0.00in /  0mm 5.0 W/m2
17:27 66.4 °F /  19.1 °C 25.3 °F /  -3.7 °C 30.20in /  1022.6hPa Calm   3.0mph /  4.8km/h 21% 0.00in /  0mm 0.0 W/m2
17:33 65.8 °F /  18.8 °C 25.9 °F /  -3.4 °C 30.21in /  1022.9hPa Calm   1.0mph /  1.6km/h 22% 0.00in /  0mm 0.0 W/m2
17:39 65.5 °F /  18.6 °C 25.7 °F /  -3.5 °C 30.21in /  1022.9hPa West 0.9mph /  1.4km/h 2.0mph /  3.2km/h 22% 0.00in /  0mm 0.0 W/m2
17:45 65.1 °F /  18.4 °C 25.3 °F /  -3.7 °C 30.21in /  1022.9hPa Calm   1.0mph /  1.6km/h 22% 0.00in /  0mm 0.0 W/m2
17:52 64.8 °F /  18.2 °C 26.1 °F /  -3.3 °C 30.21in /  1022.9hPa Calm   1.0mph /  1.6km/h 23% 0.00in /  0mm 0.0 W/m2
17:58 64.2 °F /  17.9 °C 25.7 °F /  -3.5 °C 30.21in /  1022.9hPa Calm     23% 0.00in /  0mm 0.0 W/m2
18:04 63.7 °F /  17.6 °C 26.2 °F /  -3.2 °C 30.22in /  1023.2hPa Calm   1.0mph /  1.6km/h 24% 0.00in /  0mm 0.0 W/m2
18:10 63.1 °F /  17.3 °C 25.7 °F /  -3.5 °C 30.22in /  1023.2hPa Calm     24% 0.00in /  0mm 0.0 W/m2
18:16 62.6 °F /  17 °C 25.3 °F /  -3.7 °C 30.22in /  1023.2hPa Calm     24% 0.00in /  0mm 0.0 W/m2
18:22 62.1 °F /  16.7 °C 25.9 °F /  -3.4 °C 30.22in /  1023.2hPa Calm     25% 0.00in /  0mm 0.0 W/m2
18:28 61.5 °F /  16.4 °C 25.3 °F /  -3.7 °C 30.22in /  1023.2hPa Calm     25% 0.00in /  0mm 0.0 W/m2
18:35 60.6 °F /  15.9 °C 25.5 °F /  -3.6 °C 30.22in /  1023.2hPa Calm     26% 0.00in /  0mm 0.0 W/m2
18:41 60.3 °F /  15.7 °C 26.1 °F /  -3.3 °C 30.22in /  1023.2hPa Calm     27% 0.00in /  0mm 0.0 W/m2
18:47 59.5 °F /  15.3 °C 26.4 °F /  -3.1 °C 30.23in /  1023.6hPa Calm     28% 0.00in /  0mm 0.0 W/m2
18:53 59.2 °F /  15.1 °C 27.0 °F /  -2.8 °C 30.23in /  1023.6hPa Calm     29% 0.00in /  0mm 0.0 W/m2
18:59 58.8 °F /  14.9 °C 26.6 °F /  -3 °C 30.23in /  1023.6hPa Calm     29% 0.00in /  0mm 0.0 W/m2
19:05 58.3 °F /  14.6 °C 27.0 °F /  -2.8 °C 30.23in /  1023.6hPa Calm     30% 0.00in /  0mm 0.0 W/m2
19:11 57.7 °F /  14.3 °C 27.3 °F /  -2.6 °C 30.24in /  1023.9hPa Calm     31% 0.00in /  0mm 0.0 W/m2
19:18 57.6 °F /  14.2 °C 27.9 °F /  -2.3 °C 30.24in /  1023.9hPa Calm     32% 0.00in /  0mm 0.0 W/m2
19:24 57.4 °F /  14.1 °C 27.7 °F /  -2.4 °C 30.24in /  1023.9hPa Calm     32% 0.00in /  0mm 0.0 W/m2
19:30 57.0 °F /  13.9 °C 28.2 °F /  -2.1 °C 30.24in /  1023.9hPa Calm     33% 0.00in /  0mm 0.0 W/m2
19:36 56.7 °F /  13.7 °C 27.9 °F /  -2.3 °C 30.24in /  1023.9hPa Calm     33% 0.00in /  0mm 0.0 W/m2
19:42 56.5 °F /  13.6 °C 27.7 °F /  -2.4 °C 30.24in /  1023.9hPa Calm     33% 0.00in /  0mm 0.0 W/m2
19:50 56.1 °F /  13.4 °C 27.3 °F /  -2.6 °C 30.24in /  1023.9hPa Calm     33% 0.00in /  0mm 0.0 W/m2
19:56 56.1 °F /  13.4 °C 28.0 °F /  -2.2 °C 30.24in /  1023.9hPa Calm     34% 0.00in /  0mm 0.0 W/m2
20:03 55.9 °F /  13.3 °C 28.0 °F /  -2.2 °C 30.24in /  1023.9hPa Calm     34% 0.00in /  0mm 0.0 W/m2
20:08 55.8 °F /  13.2 °C 28.6 °F /  -1.9 °C 30.25in /  1024.3hPa Calm     35% 0.00in /  0mm 0.0 W/m2
20:14 55.2 °F /  12.9 °C 28.0 °F /  -2.2 °C 30.25in /  1024.3hPa Calm     35% 0.00in /  0mm 0.0 W/m2
20:20 54.7 °F /  12.6 °C 28.2 °F /  -2.1 °C 30.25in /  1024.3hPa Calm     36% 0.00in /  0mm 0.0 W/m2
20:26 54.0 °F /  12.2 °C 27.7 °F /  -2.4 °C 30.25in /  1024.3hPa Calm     36% 0.00in /  0mm 0.0 W/m2
20:33 53.4 °F /  11.9 °C 27.9 °F /  -2.3 °C 30.25in /  1024.3hPa Calm     37% 0.00in /  0mm 0.0 W/m2
20:39 53.1 °F /  11.7 °C 28.0 °F /  -2.2 °C 30.26in /  1024.6hPa Calm     38% 0.00in /  0mm 0.0 W/m2
20:45 52.5 °F /  11.4 °C 27.7 °F /  -2.4 °C 30.26in /  1024.6hPa Calm     38% 0.00in /  0mm 0.0 W/m2
20:51 52.2 °F /  11.2 °C 27.9 °F /  -2.3 °C 30.26in /  1024.6hPa Calm     39% 0.00in /  0mm 0.0 W/m2
20:57 51.6 °F /  10.9 °C 28.0 °F /  -2.2 °C 30.26in /  1024.6hPa Calm     40% 0.00in /  0mm 0.0 W/m2
21:03 51.3 °F /  10.7 °C 27.7 °F /  -2.4 °C 30.26in /  1024.6hPa Calm     40% 0.00in /  0mm 0.0 W/m2
21:09 50.7 °F /  10.4 °C 27.9 °F /  -2.3 °C 30.27in /  1024.9hPa Calm     41% 0.00in /  0mm 0.0 W/m2
21:15 50.4 °F /  10.2 °C 27.0 °F /  -2.8 °C 30.27in /  1024.9hPa Calm     40% 0.00in /  0mm 0.0 W/m2
21:21 50.2 °F /  10.1 °C 28.0 °F /  -2.2 °C 30.27in /  1024.9hPa Calm     42% 0.00in /  0mm 0.0 W/m2
21:28 49.8 °F /  9.9 °C 27.7 °F /  -2.4 °C 30.27in /  1024.9hPa Calm     42% 0.00in /  0mm 0.0 W/m2
21:34 49.6 °F /  9.8 °C 27.5 °F /  -2.5 °C 30.28in /  1025.3hPa Calm   1.0mph /  1.6km/h 42% 0.00in /  0mm 0.0 W/m2
21:40 50.0 °F /  10 °C 27.1 °F /  -2.7 °C 30.28in /  1025.3hPa Calm   2.0mph /  3.2km/h 41% 0.00in /  0mm 0.0 W/m2
21:46 50.4 °F /  10.2 °C 27.5 °F /  -2.5 °C 30.28in /  1025.3hPa NE 0.9mph /  1.4km/h 2.0mph /  3.2km/h 41% 0.00in /  0mm 0.0 W/m2
21:52 50.7 °F /  10.4 °C 27.9 °F /  -2.3 °C 30.28in /  1025.3hPa ENE 0.9mph /  1.4km/h 2.0mph /  3.2km/h 41% 0.00in /  0mm 0.0 W/m2
21:58 50.7 °F /  10.4 °C 27.9 °F /  -2.3 °C 30.28in /  1025.3hPa Calm     41% 0.00in /  0mm 0.0 W/m2
22:04 50.7 °F /  10.4 °C 27.9 °F /  -2.3 °C 30.29in /  1025.6hPa Calm     41% 0.00in /  0mm 0.0 W/m2
22:10 50.5 °F /  10.3 °C 27.7 °F /  -2.4 °C 30.29in /  1025.6hPa Calm     41% 0.00in /  0mm 0.0 W/m2
22:17 50.5 °F /  10.3 °C 28.2 °F /  -2.1 °C 30.29in /  1025.6hPa Calm     42% 0.00in /  0mm 0.0 W/m2
22:23 50.4 °F /  10.2 °C 28.2 °F /  -2.1 °C 30.29in /  1025.6hPa Calm     42% 0.00in /  0mm 0.0 W/m2
22:27 50.2 °F /  10.1 °C 28.0 °F /  -2.2 °C 30.29in /  1025.6hPa Calm     42% 0.00in /  0mm 0.0 W/m2
22:34 49.8 °F /  9.9 °C 28.2 °F /  -2.1 °C 30.29in /  1025.6hPa Calm     43% 0.00in /  0mm 0.0 W/m2
22:39 49.6 °F /  9.8 °C 28.0 °F /  -2.2 °C 30.29in /  1025.6hPa Calm     43% 0.00in /  0mm 0.0 W/m2
22:45 49.5 °F /  9.7 °C 28.4 °F /  -2 °C 30.29in /  1025.6hPa Calm   1.0mph /  1.6km/h 44% 0.00in /  0mm 0.0 W/m2
22:51 49.3 °F /  9.6 °C 27.7 °F /  -2.4 °C 30.29in /  1025.6hPa Calm     43% 0.00in /  0mm 0.0 W/m2
22:57 49.3 °F /  9.6 °C 27.1 °F /  -2.7 °C 30.29in /  1025.6hPa Calm     42% 0.00in /  0mm 0.0 W/m2
23:04 49.3 °F /  9.6 °C 26.6 °F /  -3 °C 30.28in /  1025.3hPa Calm     41% 0.00in /  0mm 0.0 W/m2
23:10 49.1 °F /  9.5 °C 27.0 °F /  -2.8 °C 30.28in /  1025.3hPa Calm     42% 0.00in /  0mm 0.0 W/m2
23:16 48.9 °F /  9.4 °C 26.8 °F /  -2.9 °C 30.28in /  1025.3hPa Calm     42% 0.00in /  0mm 0.0 W/m2
23:22 48.9 °F /  9.4 °C 27.3 °F /  -2.6 °C 30.27in /  1024.9hPa Calm     43% 0.00in /  0mm 0.0 W/m2
23:28 48.7 °F /  9.3 °C 27.3 °F /  -2.6 °C 30.27in /  1024.9hPa Calm     43% 0.00in /  0mm 0.0 W/m2
23:34 48.4 °F /  9.1 °C 27.0 °F /  -2.8 °C 30.27in /  1024.9hPa Calm     43% 0.00in /  0mm 0.0 W/m2
23:40 48.0 °F /  8.9 °C 26.6 °F /  -3 °C 30.27in /  1024.9hPa Calm     43% 0.00in /  0mm 0.0 W/m2
23:46 47.7 °F /  8.7 °C 26.2 °F /  -3.2 °C 30.27in /  1024.9hPa Calm     43% 0.00in /  0mm 0.0 W/m2
23:52 47.5 °F /  8.6 °C 25.5 °F /  -3.6 °C 30.27in /  1024.9hPa Calm     42% 0.00in /  0mm 0.0 W/m2
23:58 47.5 °F /  8.6 °C 25.5 °F /  -3.6 °C 30.27in /  1024.9hPa Calm     42% 0.00in /  0mm 0.0 W/m2
Olympia, Windhoek, Namibia
Compliments of Weather Underground - 3 mb